createdAt,value
2023-02-15T00:00:11.604Z,24.45
2023-02-15T00:02:13.229Z,28.13
2023-02-15T00:04:19.140Z,28.02
2023-02-15T00:06:26.467Z,30.52
2023-02-15T00:08:28.030Z,29.02
2023-02-15T00:10:32.182Z,28.63
2023-02-15T00:12:33.904Z,28.63
2023-02-15T00:14:38.443Z,27.17
2023-02-15T00:16:48.512Z,27.48
2023-02-15T00:19:03.195Z,25.70
2023-02-15T00:21:30.286Z,26.80
2023-02-15T00:23:57.696Z,27.52
2023-02-15T00:26:10.853Z,26.38
2023-02-15T00:28:22.043Z,28.50
2023-02-15T00:30:33.531Z,27.20
2023-02-15T00:32:44.259Z,28.25
2023-02-15T00:34:53.871Z,26.23
2023-02-15T00:37:07.316Z,33.88
2023-02-15T00:39:22.666Z,33.40
2023-02-15T00:41:30.637Z,30.80
2023-02-15T00:43:57.829Z,30.50
2023-02-15T00:46:13.500Z,29.90
2023-02-15T00:48:27.127Z,30.70
2023-02-15T00:50:36.949Z,29.55
2023-02-15T00:52:40.945Z,29.70
2023-02-15T00:57:05.298Z,32.20
2023-02-15T00:59:09.759Z,28.30
2023-02-15T01:01:12.610Z,28.92
2023-02-15T01:03:17.319Z,31.65
2023-02-15T01:05:19.192Z,31.33
2023-02-15T01:09:24.779Z,29.48
2023-02-15T01:13:33.453Z,33.80
2023-02-15T01:15:36.503Z,34.22
2023-02-15T01:17:41.018Z,35.80
2023-02-15T01:19:48.425Z,34.53
2023-02-15T01:21:55.847Z,33.85
2023-02-15T01:23:57.317Z,32.47
2023-02-15T01:26:04.614Z,29.88
2023-02-15T01:28:09.129Z,30.48
2023-02-15T01:30:14.259Z,30.33
2023-02-15T01:32:15.832Z,29.08
2023-02-15T01:34:17.418Z,28.92
2023-02-15T01:36:37.725Z,28.40
2023-02-15T01:38:40.728Z,27.17
2023-02-15T01:40:45.116Z,31.13
2023-02-15T01:42:46.658Z,32.03
2023-02-15T01:44:48.086Z,29.23
2023-02-15T01:46:53.529Z,32.13
2023-02-15T01:48:57.676Z,30.42
2023-02-15T01:51:01.736Z,32.78
2023-02-15T01:53:03.483Z,32.95
2023-02-15T01:55:07.179Z,31.20
2023-02-15T01:57:11.731Z,32.30
2023-02-15T01:59:15.942Z,31.38
2023-02-15T02:01:20.410Z,31.50
2023-02-15T02:03:48.128Z,31.35
2023-02-15T02:05:49.719Z,31.90
2023-02-15T02:07:52.799Z,33.72
2023-02-15T02:09:54.290Z,30.50
2023-02-15T02:11:55.950Z,41.45
2023-02-15T02:16:09.222Z,36.63
2023-02-15T02:18:18.975Z,34.03
2023-02-15T02:20:39.454Z,33.08
2023-02-15T02:22:58.615Z,31.85
2023-02-15T02:25:07.927Z,33.25
2023-02-15T02:27:31.860Z,33.25
2023-02-15T02:29:55.866Z,32.72
2023-02-15T02:31:57.403Z,33.15
2023-02-15T02:34:03.009Z,35.90
2023-02-15T02:36:28.645Z,32.13
2023-02-15T02:38:51.473Z,33.10
2023-02-15T02:41:10.199Z,30.90
2023-02-15T02:43:16.274Z,33.38
2023-02-15T02:45:24.189Z,33.90
2023-02-15T02:47:33.271Z,32.22
2023-02-15T02:49:36.389Z,36.22
2023-02-15T02:51:37.793Z,32.60
2023-02-15T02:53:39.309Z,32.42
2023-02-15T02:56:07.052Z,31.80
2023-02-15T02:58:11.474Z,31.98
2023-02-15T03:00:13.303Z,32.90
2023-02-15T03:02:20.874Z,33.53
2023-02-15T03:04:32.833Z,34.00
2023-02-15T03:06:48.215Z,33.33
2023-02-15T03:09:22.553Z,33.58
2023-02-15T03:11:26.564Z,34.72
2023-02-15T03:13:28.648Z,34.05
2023-02-15T03:15:51.531Z,33.70
2023-02-15T03:17:57.873Z,32.50
2023-02-15T03:20:07.793Z,32.72
2023-02-15T03:22:20.301Z,29.90
2023-02-15T03:24:29.188Z,32.85
2023-02-15T03:26:33.265Z,33.13
2023-02-15T03:28:42.729Z,33.53
2023-02-15T03:30:50.774Z,32.78
2023-02-15T03:32:55.392Z,31.60
2023-02-15T03:35:02.788Z,32.15
2023-02-15T03:37:15.879Z,31.00
2023-02-15T03:39:25.459Z,32.92
2023-02-15T03:41:35.406Z,32.03
2023-02-15T03:43:54.553Z,33.10
2023-02-15T03:45:59.587Z,32.28
2023-02-15T03:48:07.113Z,32.75
2023-02-15T03:50:38.183Z,32.90
2023-02-15T03:52:44.997Z,32.30
2023-02-15T03:54:50.393Z,32.88
2023-02-15T03:57:11.965Z,33.58
2023-02-15T03:59:32.018Z,34.22
2023-02-15T04:01:59.872Z,32.67
2023-02-15T04:04:03.910Z,32.55
2023-02-15T04:06:05.727Z,30.73
2023-02-15T04:08:10.179Z,34.25
2023-02-15T04:10:33.347Z,32.08
2023-02-15T04:12:34.829Z,30.83
2023-02-15T04:14:54.772Z,31.08
2023-02-15T04:16:56.397Z,32.10
2023-02-15T04:19:19.091Z,31.58
2023-02-15T04:21:39.987Z,33.45
2023-02-15T04:24:00.170Z,33.70
2023-02-15T04:26:05.574Z,32.03
2023-02-15T04:28:10.002Z,32.10
2023-02-15T04:30:19.320Z,33.53
2023-02-15T04:32:20.908Z,34.50
2023-02-15T04:34:25.592Z,31.63
2023-02-15T04:36:27.110Z,34.38
2023-02-15T04:38:47.009Z,32.90
2023-02-15T04:40:52.910Z,36.42
2023-02-15T04:42:56.924Z,35.42
2023-02-15T04:47:05.518Z,30.27
2023-02-15T04:49:07.109Z,32.97
2023-02-15T04:51:12.108Z,35.78
2023-02-15T04:53:32.332Z,32.47
2023-02-15T04:55:52.336Z,32.25
2023-02-15T04:59:59.985Z,32.15
2023-02-15T05:02:04.311Z,32.47
2023-02-15T05:04:06.013Z,31.95
2023-02-15T05:06:13.627Z,32.65
2023-02-15T05:08:15.104Z,31.35
2023-02-15T05:10:19.338Z,30.15
2023-02-15T05:12:23.649Z,33.03
2023-02-15T05:14:25.204Z,33.72
2023-02-15T05:16:29.372Z,33.70
2023-02-15T05:18:33.879Z,36.15
2023-02-15T05:20:35.861Z,32.47
2023-02-15T05:22:37.764Z,36.15
2023-02-15T05:25:00.536Z,34.38
2023-02-15T05:27:23.308Z,35.45
2023-02-15T05:29:27.622Z,35.63
2023-02-15T05:31:29.359Z,33.40
2023-02-15T05:33:34.448Z,35.40
2023-02-15T05:35:38.899Z,33.28
2023-02-15T05:37:40.352Z,34.92
2023-02-15T05:40:00.692Z,34.47
2023-02-15T05:42:02.287Z,35.63
2023-02-15T05:44:03.799Z,33.55
2023-02-15T05:46:05.759Z,34.15
2023-02-15T05:48:07.377Z,33.47
2023-02-15T05:50:09.174Z,33.53
2023-02-15T05:52:29.168Z,33.42
2023-02-15T05:54:30.706Z,33.75
2023-02-15T05:56:32.223Z,31.95
2023-02-15T05:58:37.881Z,34.83
2023-02-15T06:00:39.380Z,33.78
2023-02-15T06:04:45.100Z,31.25
2023-02-15T06:08:53.374Z,33.83
2023-02-15T06:10:55.010Z,36.08
2023-02-15T06:15:03.423Z,34.77
2023-02-15T06:17:07.710Z,35.60
2023-02-15T06:19:12.141Z,34.15
2023-02-15T06:21:16.499Z,33.80
2023-02-15T06:23:20.879Z,35.22
2023-02-15T06:25:22.443Z,34.55
2023-02-15T06:27:28.715Z,36.70
2023-02-15T06:29:59.114Z,35.30
2023-02-15T06:32:15.958Z,37.97
2023-02-15T06:34:30.870Z,38.08
2023-02-15T06:36:58.929Z,39.47
2023-02-15T06:39:09.170Z,46.05
2023-02-15T06:41:19.645Z,43.63
2023-02-15T06:43:30.505Z,50.33
2023-02-15T06:45:44.475Z,49.42
2023-02-15T06:47:54.620Z,49.17
2023-02-15T06:50:11.655Z,50.15
2023-02-15T06:52:22.914Z,53.88
2023-02-15T06:54:38.064Z,53.53
2023-02-15T06:56:49.950Z,54.92
2023-02-15T06:59:02.402Z,59.10
2023-02-15T07:01:17.406Z,54.40
2023-02-15T07:03:23.313Z,59.97
2023-02-15T07:05:32.463Z,55.80
2023-02-15T07:07:34.093Z,56.15
2023-02-15T07:09:38.669Z,58.30
2023-02-15T07:11:58.845Z,58.47
2023-02-15T07:14:00.455Z,59.20
2023-02-15T07:16:02.253Z,60.15
2023-02-15T07:18:22.277Z,54.75
2023-02-15T07:20:24.138Z,59.20
2023-02-15T07:22:25.654Z,63.35
2023-02-15T07:24:45.940Z,60.42
2023-02-15T07:26:47.684Z,63.42
2023-02-15T07:28:49.104Z,61.08
2023-02-15T07:30:53.501Z,57.90
2023-02-15T07:33:16.933Z,66.10
2023-02-15T07:35:21.234Z,58.25
2023-02-15T07:37:22.780Z,56.65
2023-02-15T07:39:27.061Z,56.83
2023-02-15T07:41:28.617Z,61.33
2023-02-15T07:43:30.561Z,59.58
2023-02-15T07:45:34.888Z,59.60
2023-02-15T07:47:38.994Z,58.58
2023-02-15T07:49:43.307Z,58.58
2023-02-15T07:51:44.759Z,56.78
2023-02-15T07:53:49.625Z,53.67
2023-02-15T07:56:01.184Z,52.83
2023-02-15T07:58:05.784Z,53.85
2023-02-15T08:00:10.463Z,52.78
2023-02-15T08:02:16.455Z,52.08
2023-02-15T08:04:19.676Z,52.10
2023-02-15T08:06:25.666Z,50.72
2023-02-15T08:08:31.109Z,54.60
2023-02-15T08:10:55.104Z,49.67
2023-02-15T08:12:56.590Z,47.13
2023-02-15T08:14:58.264Z,48.22
2023-02-15T08:17:05.876Z,50.50
2023-02-15T08:19:12.448Z,53.38
2023-02-15T08:21:16.848Z,48.83
2023-02-15T08:23:18.300Z,48.90
2023-02-15T08:25:19.729Z,50.92
2023-02-15T08:27:27.642Z,47.03
2023-02-15T08:29:32.525Z,47.92
2023-02-15T08:31:38.508Z,48.70
2023-02-15T08:33:41.540Z,47.33
2023-02-15T08:35:42.975Z,47.80
2023-02-15T08:38:02.832Z,46.47
2023-02-15T08:40:07.928Z,45.25
2023-02-15T08:42:09.499Z,44.22
2023-02-15T08:44:15.503Z,42.38
2023-02-15T08:46:17.740Z,44.08
2023-02-15T08:48:22.258Z,42.83
2023-02-15T08:50:24.060Z,42.47
2023-02-15T08:52:28.648Z,43.97
2023-02-15T08:54:30.135Z,40.83
2023-02-15T08:56:35.757Z,42.30
2023-02-15T08:58:39.842Z,42.30
2023-02-15T09:00:41.277Z,42.28
2023-02-15T09:02:45.339Z,41.63
2023-02-15T09:04:49.550Z,40.55
2023-02-15T09:06:54.179Z,39.13
2023-02-15T09:08:56.457Z,40.95
2023-02-15T09:11:07.733Z,42.20
2023-02-15T09:13:12.094Z,42.80
2023-02-15T09:17:17.769Z,39.70
2023-02-15T09:19:22.758Z,43.15
2023-02-15T09:21:25.596Z,41.35
2023-02-15T09:23:30.086Z,45.25
2023-02-15T09:25:50.432Z,44.10
2023-02-15T09:27:54.883Z,47.88
2023-02-15T09:29:59.135Z,42.08
2023-02-15T09:32:03.702Z,42.28
2023-02-15T09:34:20.300Z,43.88
2023-02-15T09:36:42.044Z,43.15
2023-02-15T09:39:06.042Z,40.65
2023-02-15T09:41:56.556Z,39.08
2023-02-15T09:44:18.208Z,39.33
2023-02-15T09:46:34.283Z,40.42
2023-02-15T09:48:43.735Z,39.00
2023-02-15T09:51:01.180Z,39.80
2023-02-15T09:53:10.839Z,41.57
2023-02-15T09:55:22.976Z,39.10
2023-02-15T09:58:05.004Z,38.92
2023-02-15T10:00:22.821Z,37.38
2023-02-15T10:02:51.482Z,38.50
2023-02-15T10:05:01.708Z,39.45
2023-02-15T10:07:20.310Z,38.63
2023-02-15T10:09:41.072Z,38.45
2023-02-15T10:12:06.772Z,39.35
2023-02-15T10:14:17.114Z,36.70
2023-02-15T10:16:34.284Z,37.28
2023-02-15T10:18:44.582Z,39.92
2023-02-15T10:20:57.760Z,39.15
2023-02-15T10:23:17.761Z,41.70
2023-02-15T10:25:33.679Z,36.17
2023-02-15T10:27:37.039Z,37.17
2023-02-15T10:30:02.097Z,38.40
2023-02-15T10:32:24.514Z,28.85
2023-02-15T10:34:48.996Z,27.38
2023-02-15T10:36:53.217Z,25.05
2023-02-15T10:41:06.336Z,25.45
2023-02-15T10:43:18.931Z,24.73
2023-02-15T10:45:34.170Z,23.50
2023-02-15T10:47:47.436Z,24.55
2023-02-15T10:49:54.197Z,21.92
2023-02-15T10:52:04.662Z,21.70
2023-02-15T10:54:27.493Z,21.77
2023-02-15T10:56:38.674Z,22.85
2023-02-15T10:58:40.345Z,21.65
2023-02-15T11:00:48.220Z,20.00
2023-02-15T11:03:01.444Z,20.67
2023-02-15T11:05:20.901Z,21.17
2023-02-15T11:07:25.276Z,20.52
2023-02-15T11:09:30.799Z,19.48
2023-02-15T11:11:37.311Z,19.08
2023-02-15T11:13:47.403Z,17.52
2023-02-15T11:15:56.289Z,16.00
2023-02-15T11:18:23.789Z,17.50
2023-02-15T11:20:47.660Z,20.75
2023-02-15T11:22:50.612Z,19.52
2023-02-15T11:25:22.965Z,19.85
2023-02-15T11:27:27.102Z,18.00
2023-02-15T11:29:39.701Z,18.42
2023-02-15T11:31:45.444Z,17.45
2023-02-15T11:33:58.184Z,19.75
2023-02-15T11:36:08.362Z,19.00
2023-02-15T11:38:18.978Z,17.23
2023-02-15T11:40:28.287Z,17.75
2023-02-15T11:42:33.503Z,19.52
2023-02-15T11:44:36.924Z,18.02
2023-02-15T11:46:38.573Z,18.67
2023-02-15T11:48:40.395Z,20.00
2023-02-15T11:50:42.864Z,20.00
2023-02-15T11:53:05.124Z,18.17
2023-02-15T11:55:18.309Z,17.55
2023-02-15T11:57:38.938Z,17.10
2023-02-15T11:59:45.291Z,15.70
2023-02-15T12:01:52.842Z,15.05
2023-02-15T12:04:09.736Z,14.52
2023-02-15T12:06:16.104Z,16.52
2023-02-15T12:08:24.163Z,17.13
2023-02-15T12:10:52.547Z,16.50
2023-02-15T12:13:10.778Z,14.05
2023-02-15T12:15:15.089Z,12.82
2023-02-15T12:17:17.136Z,18.00
2023-02-15T12:19:21.945Z,15.20
2023-02-15T12:21:30.792Z,13.73
2023-02-15T12:23:32.843Z,14.48
2023-02-15T12:25:37.251Z,13.52
2023-02-15T12:27:43.800Z,14.18
2023-02-15T12:30:20.473Z,12.80
2023-02-15T12:32:48.683Z,13.48
2023-02-15T12:35:01.377Z,14.55
2023-02-15T12:37:11.531Z,14.88
2023-02-15T12:41:26.974Z,14.63
2023-02-15T12:43:39.863Z,13.52
2023-02-15T12:45:46.174Z,12.85
2023-02-15T12:48:11.481Z,12.05
2023-02-15T12:52:28.000Z,12.18
2023-02-15T12:54:40.391Z,13.25
2023-02-15T12:56:47.312Z,15.35
2023-02-15T13:01:14.227Z,14.35
2023-02-15T13:03:36.851Z,12.70
2023-02-15T13:05:45.116Z,13.85
2023-02-15T13:07:52.093Z,14.20
2023-02-15T13:09:55.229Z,14.65
2023-02-15T13:11:59.402Z,14.27
2023-02-15T13:14:07.105Z,14.35
2023-02-15T13:16:12.022Z,14.15
2023-02-15T13:18:18.270Z,15.25
2023-02-15T13:20:24.849Z,15.80
2023-02-15T13:22:29.452Z,14.43
2023-02-15T13:24:56.738Z,13.77
2023-02-15T13:27:14.127Z,14.50
2023-02-15T13:29:23.169Z,14.90
2023-02-15T13:31:33.201Z,14.32
2023-02-15T13:33:36.944Z,13.25
2023-02-15T13:35:45.671Z,13.77
2023-02-15T13:38:03.904Z,12.70
2023-02-15T13:40:11.467Z,12.80
2023-02-15T13:42:16.037Z,14.25
2023-02-15T13:44:20.060Z,14.85
2023-02-15T13:46:45.811Z,14.65
2023-02-15T13:48:59.020Z,13.15
2023-02-15T13:51:21.788Z,12.48
2023-02-15T13:53:42.122Z,13.27
2023-02-15T13:55:58.483Z,14.45
2023-02-15T13:58:02.896Z,14.40
2023-02-15T14:00:29.252Z,13.80
2023-02-15T14:02:36.091Z,13.77
2023-02-15T14:04:50.554Z,13.93
2023-02-15T14:06:52.160Z,13.80
2023-02-15T14:09:08.736Z,15.30
2023-02-15T14:11:12.985Z,13.68
2023-02-15T14:13:33.165Z,15.65
2023-02-15T14:15:40.645Z,14.65
2023-02-15T14:18:13.053Z,15.00
2023-02-15T14:20:23.081Z,15.60
2023-02-15T14:22:34.140Z,15.85
2023-02-15T14:24:44.205Z,14.82
2023-02-15T14:27:10.064Z,12.88
2023-02-15T14:29:20.153Z,17.23
2023-02-15T14:31:31.414Z,14.18
2023-02-15T14:33:46.637Z,13.00
2023-02-15T14:35:48.729Z,14.32
2023-02-15T14:37:53.694Z,14.07
2023-02-15T14:40:38.211Z,14.68
2023-02-15T14:42:39.809Z,13.15
2023-02-15T14:44:46.314Z,11.07
2023-02-15T14:47:06.068Z,12.93
2023-02-15T14:49:26.967Z,11.25
2023-02-15T14:51:47.048Z,11.55
2023-02-15T14:53:48.517Z,11.63
2023-02-15T14:56:05.945Z,12.23
2023-02-15T14:58:12.065Z,12.05
2023-02-15T15:00:33.910Z,11.20
2023-02-15T15:02:49.899Z,11.38
2023-02-15T15:05:00.133Z,13.45
2023-02-15T15:07:12.916Z,12.68
2023-02-15T15:09:34.652Z,12.70
2023-02-15T15:11:55.429Z,13.30
2023-02-15T15:14:00.926Z,13.45
2023-02-15T15:16:22.403Z,13.02
2023-02-15T15:18:43.611Z,12.55
2023-02-15T15:20:52.268Z,12.57
2023-02-15T15:23:15.467Z,12.13
2023-02-15T15:25:39.762Z,12.05
2023-02-15T15:27:55.281Z,12.05
2023-02-15T15:30:15.317Z,12.70
2023-02-15T15:32:19.736Z,11.00
2023-02-15T15:34:33.531Z,11.05
2023-02-15T15:36:38.350Z,11.63
2023-02-15T15:38:45.638Z,11.27
2023-02-15T15:41:13.314Z,10.80
2023-02-15T15:43:34.150Z,12.60
2023-02-15T15:46:02.472Z,10.88
2023-02-15T15:48:30.223Z,11.35
2023-02-15T15:50:40.744Z,12.13
2023-02-15T15:52:49.775Z,11.90
2023-02-15T15:54:53.887Z,10.63
2023-02-15T15:57:01.541Z,11.88
2023-02-15T15:59:10.184Z,11.77
2023-02-15T16:01:15.690Z,12.77
2023-02-15T16:03:25.550Z,12.32
2023-02-15T16:05:39.291Z,14.57
2023-02-15T16:07:46.113Z,14.45
2023-02-15T16:09:59.663Z,13.80
2023-02-15T16:12:04.037Z,12.95
2023-02-15T16:14:15.082Z,13.85
2023-02-15T16:16:24.531Z,16.92
2023-02-15T16:18:28.783Z,17.30
2023-02-15T16:20:39.372Z,16.67
2023-02-15T16:22:42.278Z,18.77
2023-02-15T16:24:44.081Z,19.42
2023-02-15T16:27:04.377Z,22.25
2023-02-15T16:29:15.011Z,20.38
2023-02-15T16:31:20.126Z,21.90
2023-02-15T16:33:37.836Z,20.38
2023-02-15T16:36:05.701Z,22.88
2023-02-15T16:40:24.677Z,21.95
2023-02-15T16:42:28.773Z,21.17
2023-02-15T16:44:33.898Z,23.08
2023-02-15T16:46:43.944Z,23.83
2023-02-15T16:48:49.773Z,25.35
2023-02-15T16:50:56.102Z,24.55
2023-02-15T16:52:57.833Z,21.52
2023-02-15T16:55:26.038Z,21.95
2023-02-15T16:57:37.339Z,20.30
2023-02-15T16:59:44.447Z,16.30
2023-02-15T17:01:46.039Z,14.88
2023-02-15T17:03:49.645Z,12.25
2023-02-15T17:05:55.269Z,11.95
2023-02-15T17:08:07.489Z,11.88
2023-02-15T17:10:27.054Z,10.82
2023-02-15T17:12:47.851Z,11.70
2023-02-15T17:14:55.314Z,11.35
2023-02-15T17:17:01.202Z,10.05
2023-02-15T17:19:03.863Z,11.07
2023-02-15T17:21:18.440Z,11.07
2023-02-15T17:23:33.595Z,13.20
2023-02-15T17:25:40.017Z,11.20
2023-02-15T17:27:44.109Z,12.45
2023-02-15T17:29:53.079Z,12.75
2023-02-15T17:31:58.843Z,12.57
2023-02-15T17:34:01.224Z,12.05
2023-02-15T17:36:12.371Z,10.25
2023-02-15T17:38:21.637Z,12.45
2023-02-15T17:40:25.449Z,12.05
2023-02-15T17:42:27.136Z,10.27
2023-02-15T17:44:31.489Z,12.68
2023-02-15T17:46:37.354Z,12.63
2023-02-15T17:48:57.558Z,12.93
2023-02-15T17:51:01.593Z,12.75
2023-02-15T17:53:09.322Z,11.50
2023-02-15T17:55:33.340Z,13.32
2023-02-15T17:57:38.740Z,12.95
2023-02-15T18:00:01.601Z,11.77
2023-02-15T18:02:27.962Z,14.02
2023-02-15T18:05:07.088Z,16.95
2023-02-15T18:07:28.460Z,18.33
2023-02-15T18:09:48.423Z,16.90
2023-02-15T18:11:50.693Z,16.95
2023-02-15T18:13:52.223Z,17.77
2023-02-15T18:15:56.469Z,17.25
2023-02-15T18:18:00.623Z,17.52
2023-02-15T18:22:12.874Z,17.42
2023-02-15T18:24:15.574Z,18.63
2023-02-15T18:26:21.142Z,21.08
2023-02-15T18:28:25.549Z,20.38
2023-02-15T18:30:33.489Z,24.65
2023-02-15T18:32:36.299Z,27.08
2023-02-15T18:34:41.663Z,23.92
2023-02-15T18:36:45.922Z,24.45
2023-02-15T18:38:47.592Z,22.13
2023-02-15T18:41:07.784Z,20.75
2023-02-15T18:43:15.393Z,22.63
2023-02-15T18:45:18.622Z,21.30
2023-02-15T18:47:27.972Z,16.80
2023-02-15T18:49:32.345Z,17.05
2023-02-15T18:51:40.852Z,19.17
2023-02-15T18:53:42.823Z,16.17
2023-02-15T18:55:46.318Z,17.58
2023-02-15T18:57:51.663Z,17.10
2023-02-15T18:59:54.394Z,18.70
2023-02-15T19:02:01.638Z,16.42
2023-02-15T19:04:10.576Z,16.73
2023-02-15T19:06:13.589Z,20.58
2023-02-15T19:08:19.005Z,17.77
2023-02-15T19:10:25.214Z,15.88
2023-02-15T19:12:31.196Z,17.73
2023-02-15T19:14:37.013Z,18.42
2023-02-15T19:16:42.482Z,17.10
2023-02-15T19:18:45.790Z,16.42
2023-02-15T19:20:51.956Z,17.77
2023-02-15T19:22:59.441Z,17.17
2023-02-15T19:25:02.918Z,17.65
2023-02-15T19:27:07.929Z,17.00
2023-02-15T19:29:10.822Z,17.65
2023-02-15T19:31:15.324Z,19.75
2023-02-15T19:33:20.835Z,17.63
2023-02-15T19:35:24.032Z,19.55
2023-02-15T19:37:35.107Z,17.92
2023-02-15T19:39:40.469Z,19.17
2023-02-15T19:41:44.920Z,19.42
2023-02-15T19:44:05.236Z,19.10
2023-02-15T19:46:16.926Z,19.80
2023-02-15T19:48:21.417Z,18.50
2023-02-15T19:50:28.104Z,21.52
2023-02-15T19:52:32.243Z,20.80
2023-02-15T19:54:40.154Z,19.67
2023-02-15T19:56:41.994Z,20.80
2023-02-15T19:58:43.500Z,20.90
2023-02-15T20:00:48.569Z,19.35
2023-02-15T20:02:50.523Z,19.02
2023-02-15T20:04:55.032Z,19.15
2023-02-15T20:07:26.298Z,19.55
2023-02-15T20:09:35.623Z,18.90
2023-02-15T20:11:37.172Z,19.60
2023-02-15T20:13:57.435Z,19.90
2023-02-15T20:16:01.719Z,18.65
2023-02-15T20:18:04.255Z,19.17
2023-02-15T20:20:06.375Z,19.52
2023-02-15T20:22:30.803Z,20.13
2023-02-15T20:24:36.148Z,17.67
2023-02-15T20:26:42.731Z,20.42
2023-02-15T20:28:45.954Z,19.45
2023-02-15T20:30:51.161Z,21.58
2023-02-15T20:32:55.616Z,22.52
2023-02-15T20:35:17.376Z,17.00
2023-02-15T20:37:24.100Z,18.48
2023-02-15T20:39:28.542Z,20.17
2023-02-15T20:41:36.049Z,16.23
2023-02-15T20:43:40.542Z,15.00
2023-02-15T20:45:42.141Z,16.15
2023-02-15T20:47:48.318Z,15.50
2023-02-15T20:49:50.602Z,14.52
2023-02-15T20:51:52.897Z,13.82
2023-02-15T20:53:56.958Z,13.32
2023-02-15T20:56:01.490Z,11.77
2023-02-15T20:58:23.370Z,13.35
2023-02-15T21:00:26.684Z,13.18
2023-02-15T21:02:30.830Z,13.55
2023-02-15T21:04:35.377Z,13.88
2023-02-15T21:06:40.101Z,14.50
2023-02-15T21:08:44.624Z,11.95
2023-02-15T21:10:48.050Z,11.82
2023-02-15T21:12:51.382Z,11.38
2023-02-15T21:14:55.926Z,10.20
2023-02-15T21:16:58.524Z,12.10
2023-02-15T21:19:02.868Z,10.70
2023-02-15T21:21:06.368Z,10.13
2023-02-15T21:23:31.917Z,10.38
2023-02-15T21:25:37.178Z,9.75
2023-02-15T21:27:38.948Z,10.00
2023-02-15T21:29:43.672Z,8.75
2023-02-15T21:31:48.453Z,8.38
2023-02-15T21:33:50.066Z,10.50
2023-02-15T21:35:55.625Z,8.93
2023-02-15T21:37:57.059Z,7.97
2023-02-15T21:39:58.586Z,9.15
2023-02-15T21:42:19.056Z,8.23
2023-02-15T21:44:42.689Z,8.63
2023-02-15T21:47:05.341Z,9.45
2023-02-15T21:49:10.748Z,8.38
2023-02-15T21:51:33.242Z,9.48
2023-02-15T21:53:46.940Z,8.70
2023-02-15T21:56:01.103Z,7.95
2023-02-15T21:58:26.880Z,8.45
2023-02-15T22:00:35.460Z,6.78
2023-02-15T22:02:42.373Z,7.82
2023-02-15T22:04:44.374Z,6.35
2023-02-15T22:06:47.433Z,10.35
2023-02-15T22:08:51.123Z,10.60
2023-02-15T22:10:58.414Z,10.70
2023-02-15T22:13:04.957Z,8.13
2023-02-15T22:15:09.607Z,5.95
2023-02-15T22:17:21.458Z,7.70
2023-02-15T22:19:28.560Z,6.88
2023-02-15T22:21:32.771Z,6.82
2023-02-15T22:23:40.554Z,7.35
2023-02-15T22:25:50.404Z,7.88
2023-02-15T22:27:54.765Z,5.78
2023-02-15T22:30:01.696Z,5.93
2023-02-15T22:32:05.667Z,4.82
2023-02-15T22:34:30.893Z,7.57
2023-02-15T22:36:34.894Z,4.93
2023-02-15T22:38:42.360Z,5.28
2023-02-15T22:40:44.355Z,6.82
2023-02-15T22:42:49.644Z,4.90
2023-02-15T22:44:54.708Z,6.30
2023-02-15T22:47:00.096Z,6.55
2023-02-15T22:49:04.554Z,4.07
2023-02-15T22:51:06.306Z,4.18
2023-02-15T22:53:10.875Z,4.15
2023-02-15T22:55:19.848Z,4.10
2023-02-15T22:57:31.312Z,3.47
2023-02-15T23:01:43.711Z,3.50
2023-02-15T23:03:48.135Z,2.78
2023-02-15T23:05:49.769Z,4.50
2023-02-15T23:08:11.371Z,2.78
2023-02-15T23:10:22.655Z,3.28
2023-02-15T23:12:53.752Z,4.13
2023-02-15T23:15:13.910Z,3.85
2023-02-15T23:17:15.457Z,3.70
2023-02-15T23:19:17.071Z,3.80
2023-02-15T23:21:27.232Z,4.07
2023-02-15T23:23:33.523Z,3.88
2023-02-15T23:25:38.056Z,4.13
2023-02-15T23:27:58.166Z,4.60
2023-02-15T23:30:11.973Z,5.35
2023-02-15T23:32:14.205Z,7.07
2023-02-15T23:34:30.451Z,8.75
2023-02-15T23:36:36.841Z,8.40
2023-02-15T23:38:58.540Z,6.15
2023-02-15T23:41:21.457Z,4.65
2023-02-15T23:43:23.118Z,5.38
2023-02-15T23:45:24.868Z,5.75
2023-02-15T23:47:52.476Z,5.88
2023-02-15T23:49:53.920Z,5.85
2023-02-15T23:51:58.580Z,5.97
2023-02-15T23:54:05.800Z,5.65
2023-02-15T23:56:10.271Z,4.70
2023-02-15T23:58:16.303Z,5.53
